createdAt,value
2022-09-02T00:00:17.334Z,3.53
2022-09-02T00:01:07.357Z,3.89
2022-09-02T00:04:01.358Z,4.53
2022-09-02T00:04:48.386Z,4.28
2022-09-02T00:05:23.637Z,4.60
2022-09-02T00:06:11.332Z,4.14
2022-09-02T00:06:45.445Z,3.71
2022-09-02T00:07:32.354Z,4.07
2022-09-02T00:08:06.493Z,5.11
2022-09-02T00:08:54.336Z,5.14
2022-09-02T00:09:31.638Z,4.30
2022-09-02T00:10:12.498Z,5.14
2022-09-02T00:10:53.392Z,4.15
2022-09-02T00:11:37.332Z,3.33
2022-09-02T00:12:17.416Z,4.03
2022-09-02T00:12:57.316Z,4.07
2022-09-02T00:13:37.515Z,3.94
2022-09-02T00:14:33.369Z,3.56
2022-09-02T00:15:21.372Z,3.92
2022-09-02T00:16:17.483Z,4.28
2022-09-02T00:17:11.342Z,4.16
2022-09-02T00:18:05.336Z,4.81
2022-09-02T00:19:04.326Z,3.95
2022-09-02T00:19:58.317Z,4.26
2022-09-02T00:20:48.377Z,4.86
2022-09-02T00:21:24.570Z,3.50
2022-09-02T00:22:11.342Z,3.25
2022-09-02T00:22:45.388Z,4.44
2022-09-02T00:23:32.340Z,4.49
2022-09-02T00:24:07.756Z,3.65
2022-09-02T00:24:54.328Z,3.99
2022-09-02T00:25:35.377Z,4.07
2022-09-02T00:26:15.351Z,3.75
2022-09-02T00:26:56.944Z,5.06
2022-09-02T00:27:38.333Z,4.89
2022-09-02T00:28:21.676Z,3.63
2022-09-02T00:29:02.326Z,3.56
2022-09-02T00:29:42.376Z,4.01
2022-09-02T00:30:23.331Z,4.44
2022-09-02T00:31:04.433Z,4.93
2022-09-02T00:31:44.430Z,3.64
2022-09-02T00:32:25.364Z,3.13
2022-09-02T00:33:06.339Z,3.28
2022-09-02T00:33:47.393Z,3.97
2022-09-02T00:34:27.329Z,5.18
2022-09-02T00:35:07.417Z,4.43
2022-09-02T00:35:48.317Z,3.96
2022-09-02T00:36:29.402Z,3.45
2022-09-02T00:37:09.348Z,3.38
2022-09-02T00:37:50.372Z,3.05
2022-09-02T00:38:30.356Z,3.39
2022-09-02T00:39:13.383Z,3.80
2022-09-02T00:39:53.344Z,4.06
2022-09-02T00:40:35.444Z,4.21
2022-09-02T00:41:18.318Z,3.78
2022-09-02T00:41:58.409Z,3.39
2022-09-02T00:42:40.370Z,3.76
2022-09-02T00:43:45.472Z,3.97
2022-09-02T00:44:26.303Z,4.24
2022-09-02T00:45:07.412Z,5.11
2022-09-02T00:45:47.380Z,4.14
2022-09-02T00:46:31.390Z,3.78
2022-09-02T00:47:11.312Z,3.60
2022-09-02T00:47:59.374Z,4.10
2022-09-02T00:48:35.569Z,5.16
2022-09-02T00:49:47.309Z,4.31
2022-09-02T00:50:27.068Z,3.91
2022-09-02T00:51:15.287Z,4.57
2022-09-02T00:52:11.068Z,4.30
2022-09-02T00:53:14.394Z,3.80
2022-09-02T00:53:49.013Z,3.89
2022-09-02T00:54:39.316Z,4.01
2022-09-02T00:55:21.823Z,3.28
2022-09-02T00:56:09.334Z,4.30
2022-09-02T00:56:45.464Z,4.24
2022-09-02T00:57:35.305Z,5.43
2022-09-02T00:58:33.411Z,3.05
2022-09-02T00:59:15.540Z,4.76
2022-09-02T01:00:08.305Z,3.65
2022-09-02T01:00:52.616Z,3.21
2022-09-02T01:01:33.440Z,3.66
2022-09-02T01:02:13.487Z,4.69
2022-09-02T01:03:05.301Z,4.10
2022-09-02T01:03:54.320Z,3.86
2022-09-02T01:04:29.270Z,3.80
2022-09-02T01:05:19.293Z,4.71
2022-09-02T01:05:55.002Z,6.22
2022-09-02T01:06:43.316Z,4.16
2022-09-02T01:07:17.429Z,3.69
2022-09-02T01:08:06.284Z,4.45
2022-09-02T01:08:43.634Z,3.20
2022-09-02T01:09:25.325Z,3.53
2022-09-02T01:10:06.377Z,4.50
2022-09-02T01:10:47.271Z,3.76
2022-09-02T01:11:27.344Z,3.36
2022-09-02T01:12:09.296Z,4.09
2022-09-02T01:12:50.410Z,4.71
2022-09-02T01:13:35.296Z,3.76
2022-09-02T01:14:16.370Z,3.64
2022-09-02T01:14:56.313Z,3.85
2022-09-02T01:15:37.412Z,3.70
2022-09-02T01:16:49.581Z,3.44
2022-09-02T01:17:33.776Z,3.83
2022-09-02T01:18:15.269Z,4.70
2022-09-02T01:19:00.812Z,4.80
2022-09-02T01:19:48.284Z,4.15
2022-09-02T01:20:32.313Z,4.04
2022-09-02T01:21:07.428Z,3.79
2022-09-02T01:21:51.239Z,4.53
2022-09-02T01:22:36.264Z,3.86
2022-09-02T01:23:10.344Z,3.51
2022-09-02T01:23:44.033Z,4.45
2022-09-02T01:24:27.263Z,5.03
2022-09-02T01:25:04.740Z,5.11
2022-09-02T01:25:45.325Z,4.71
2022-09-02T01:26:26.402Z,4.18
2022-09-02T01:27:07.294Z,3.55
2022-09-02T01:27:48.343Z,3.54
2022-09-02T01:28:29.287Z,3.85
2022-09-02T01:29:09.480Z,4.10
2022-09-02T01:29:50.280Z,4.07
2022-09-02T01:30:32.897Z,5.20
2022-09-02T01:31:14.341Z,4.79
2022-09-02T01:31:55.637Z,3.58
2022-09-02T01:32:37.281Z,3.19
2022-09-02T01:33:18.381Z,3.63
2022-09-02T01:33:59.266Z,4.10
2022-09-02T01:34:39.348Z,4.57
2022-09-02T01:35:20.260Z,4.20
2022-09-02T01:36:02.968Z,4.16
2022-09-02T01:36:48.281Z,4.61
2022-09-02T01:37:32.248Z,4.84
2022-09-02T01:38:13.268Z,3.74
2022-09-02T01:38:53.330Z,3.94
2022-09-02T01:39:33.281Z,4.76
2022-09-02T01:40:17.491Z,5.36
2022-09-02T01:40:59.280Z,4.04
2022-09-02T01:41:39.323Z,4.46
2022-09-02T01:42:20.309Z,5.30
2022-09-02T01:43:07.765Z,3.85
2022-09-02T01:43:48.249Z,4.69
2022-09-02T01:44:28.365Z,4.04
2022-09-02T01:45:08.272Z,4.13
2022-09-02T01:45:51.361Z,4.00
2022-09-02T01:46:31.323Z,5.16
2022-09-02T01:47:11.328Z,5.11
2022-09-02T01:47:51.304Z,4.74
2022-09-02T01:48:32.384Z,4.47
2022-09-02T01:49:12.253Z,3.91
2022-09-02T01:49:53.324Z,4.64
2022-09-02T01:50:34.250Z,4.46
2022-09-02T01:51:14.328Z,3.83
2022-09-02T01:51:55.263Z,4.11
2022-09-02T01:52:36.312Z,3.76
2022-09-02T01:53:16.321Z,4.06
2022-09-02T01:53:57.326Z,3.92
2022-09-02T01:54:37.240Z,3.90
2022-09-02T01:55:18.311Z,4.36
2022-09-02T01:55:59.268Z,3.36
2022-09-02T01:56:39.305Z,3.67
2022-09-02T01:57:20.246Z,4.09
2022-09-02T01:58:00.340Z,4.19
2022-09-02T01:58:40.361Z,3.90
2022-09-02T01:59:21.371Z,4.16
2022-09-02T02:00:01.256Z,3.38
2022-09-02T02:00:42.344Z,3.29
2022-09-02T02:01:22.270Z,3.42
2022-09-02T02:02:03.429Z,3.64
2022-09-02T02:02:44.254Z,3.26
2022-09-02T02:03:25.381Z,3.84
2022-09-02T02:04:11.383Z,4.40
2022-09-02T02:04:55.328Z,4.30
2022-09-02T02:05:37.249Z,4.36
2022-09-02T02:06:21.343Z,4.03
2022-09-02T02:07:02.235Z,3.90
2022-09-02T02:07:42.347Z,4.15
2022-09-02T02:08:22.242Z,4.14
2022-09-02T02:09:02.305Z,3.69
2022-09-02T02:09:42.275Z,4.25
2022-09-02T02:10:26.327Z,4.69
2022-09-02T02:11:07.244Z,4.54
2022-09-02T02:11:47.313Z,4.00
2022-09-02T02:12:28.253Z,4.21
2022-09-02T02:13:09.297Z,4.15
2022-09-02T02:13:49.258Z,3.55
2022-09-02T02:14:30.326Z,3.90
2022-09-02T02:15:18.260Z,3.97
2022-09-02T02:15:59.357Z,4.25
2022-09-02T02:16:39.315Z,4.83
2022-09-02T02:17:20.727Z,3.80
2022-09-02T02:18:01.266Z,3.72
2022-09-02T02:18:41.325Z,2.88
2022-09-02T02:19:22.229Z,3.40
2022-09-02T02:20:02.336Z,3.99
2022-09-02T02:20:45.001Z,4.57
2022-09-02T02:21:26.286Z,5.51
2022-09-02T02:22:06.233Z,3.89
2022-09-02T02:22:46.472Z,4.24
2022-09-02T02:23:27.213Z,5.93
2022-09-02T02:24:08.434Z,3.66
2022-09-02T02:24:49.251Z,3.71
2022-09-02T02:25:29.306Z,4.06
2022-09-02T02:26:09.409Z,4.14
2022-09-02T02:26:50.349Z,3.65
2022-09-02T02:27:30.222Z,4.10
2022-09-02T02:28:11.283Z,5.49
2022-09-02T02:28:51.225Z,5.25
2022-09-02T02:29:31.274Z,3.94
2022-09-02T02:30:14.229Z,3.79
2022-09-02T02:30:54.653Z,4.29
2022-09-02T02:31:35.349Z,3.20
2022-09-02T02:32:18.390Z,3.49
2022-09-02T02:32:58.215Z,4.66
2022-09-02T02:33:39.402Z,4.76
2022-09-02T02:34:20.210Z,3.01
2022-09-02T02:35:01.455Z,3.69
2022-09-02T02:35:42.255Z,4.10
2022-09-02T02:36:22.645Z,3.49
2022-09-02T02:37:03.258Z,4.00
2022-09-02T02:37:44.745Z,4.26
2022-09-02T02:38:25.222Z,3.67
2022-09-02T02:39:06.302Z,3.76
2022-09-02T02:39:48.206Z,3.79
2022-09-02T02:40:30.355Z,4.20
2022-09-02T02:41:13.216Z,4.34
2022-09-02T02:41:53.269Z,4.49
2022-09-02T02:42:33.249Z,3.85
2022-09-02T02:43:13.299Z,4.20
2022-09-02T02:43:54.226Z,4.89
2022-09-02T02:44:34.417Z,3.91
2022-09-02T02:45:16.210Z,4.00
2022-09-02T02:45:56.276Z,4.54
2022-09-02T02:46:38.343Z,3.53
2022-09-02T02:47:18.280Z,3.92
2022-09-02T02:47:59.230Z,3.85
2022-09-02T02:48:41.280Z,4.28
2022-09-02T02:49:21.192Z,4.07
2022-09-02T02:50:01.292Z,3.89
2022-09-02T02:50:41.217Z,4.21
2022-09-02T02:51:21.256Z,5.69
2022-09-02T02:52:01.219Z,3.81
2022-09-02T02:52:41.365Z,3.99
2022-09-02T02:53:21.329Z,4.07
2022-09-02T02:54:02.328Z,5.13
2022-09-02T02:54:43.228Z,4.64
2022-09-02T02:55:24.377Z,3.89
2022-09-02T02:56:06.189Z,3.97
2022-09-02T02:56:46.298Z,4.45
2022-09-02T02:57:26.205Z,5.24
2022-09-02T02:58:07.363Z,5.21
2022-09-02T02:58:47.297Z,5.32
2022-09-02T02:59:27.322Z,5.40
2022-09-02T03:00:28.197Z,5.47
2022-09-02T03:01:09.580Z,4.99
2022-09-02T03:01:50.322Z,4.14
2022-09-02T03:02:33.394Z,4.34
2022-09-02T03:03:17.202Z,4.03
2022-09-02T03:04:04.232Z,4.69
2022-09-02T03:04:39.880Z,5.28
2022-09-02T03:05:28.209Z,4.38
2022-09-02T03:06:01.943Z,4.10
2022-09-02T03:06:49.221Z,5.36
2022-09-02T03:07:22.921Z,5.65
2022-09-02T03:08:11.196Z,5.05
2022-09-02T03:08:44.885Z,4.34
2022-09-02T03:09:27.269Z,4.45
2022-09-02T03:10:03.325Z,4.99
2022-09-02T03:10:50.198Z,5.31
2022-09-02T03:11:25.068Z,5.11
2022-09-02T03:12:13.211Z,3.78
2022-09-02T03:12:47.688Z,3.75
2022-09-02T03:13:34.178Z,3.80
2022-09-02T03:14:08.497Z,3.69
2022-09-02T03:14:49.236Z,3.79
2022-09-02T03:15:29.273Z,3.89
2022-09-02T03:16:12.289Z,3.67
2022-09-02T03:16:52.282Z,4.46
2022-09-02T03:17:32.205Z,5.72
2022-09-02T03:18:13.280Z,5.74
2022-09-02T03:18:56.190Z,5.03
2022-09-02T03:19:36.242Z,4.57
2022-09-02T03:20:18.219Z,4.80
2022-09-02T03:20:58.384Z,4.16
2022-09-02T03:21:39.458Z,4.29
2022-09-02T03:22:19.258Z,4.14
2022-09-02T03:23:03.174Z,5.16
2022-09-02T03:23:43.792Z,4.20
2022-09-02T03:24:24.205Z,4.40
2022-09-02T03:25:04.272Z,5.27
2022-09-02T03:25:44.213Z,4.57
2022-09-02T03:26:28.334Z,3.76
2022-09-02T03:27:08.176Z,4.56
2022-09-02T03:27:49.256Z,4.72
2022-09-02T03:28:29.156Z,3.64
2022-09-02T03:29:10.229Z,4.04
2022-09-02T03:29:51.196Z,4.84
2022-09-02T03:30:34.239Z,4.79
2022-09-02T03:31:19.245Z,4.07
2022-09-02T03:31:59.233Z,4.55
2022-09-02T03:32:40.161Z,4.55
2022-09-02T03:33:20.262Z,3.86
2022-09-02T03:34:01.165Z,4.59
2022-09-02T03:34:41.810Z,5.59
2022-09-02T03:35:25.165Z,4.13
2022-09-02T03:36:05.253Z,4.45
2022-09-02T03:36:50.198Z,4.00
2022-09-02T03:37:30.235Z,5.11
2022-09-02T03:38:11.168Z,5.67
2022-09-02T03:38:51.418Z,4.90
2022-09-02T03:39:31.143Z,5.46
2022-09-02T03:40:15.369Z,4.22
2022-09-02T03:40:56.164Z,3.67
2022-09-02T03:41:36.501Z,4.34
2022-09-02T03:42:19.322Z,5.50
2022-09-02T03:43:01.239Z,5.35
2022-09-02T03:43:41.145Z,5.32
2022-09-02T03:44:21.301Z,4.65
2022-09-02T03:45:01.148Z,5.84
2022-09-02T03:45:41.850Z,7.61
2022-09-02T03:46:23.209Z,6.22
2022-09-02T03:47:03.213Z,5.74
2022-09-02T03:47:47.191Z,6.60
2022-09-02T03:48:29.400Z,6.15
2022-09-02T03:49:11.148Z,6.88
2022-09-02T03:49:51.670Z,8.81
2022-09-02T03:50:44.156Z,7.44
2022-09-02T03:51:28.254Z,6.31
2022-09-02T03:52:09.146Z,6.44
2022-09-02T03:52:56.218Z,6.26
2022-09-02T03:53:50.166Z,6.14
2022-09-02T03:54:44.199Z,5.75
2022-09-02T03:55:39.166Z,7.05
2022-09-02T03:56:34.153Z,6.63
2022-09-02T03:57:29.157Z,5.05
2022-09-02T03:58:17.174Z,4.63
2022-09-02T03:58:55.492Z,4.85
2022-09-02T03:59:42.135Z,4.96
2022-09-02T04:00:28.873Z,4.00
2022-09-02T04:01:34.386Z,4.99
2022-09-02T04:02:09.298Z,4.35
2022-09-02T04:02:58.184Z,3.76
2022-09-02T04:03:39.263Z,3.61
2022-09-02T04:04:34.185Z,4.22
2022-09-02T04:05:29.139Z,4.79
2022-09-02T04:06:32.500Z,5.57
2022-09-02T04:07:27.118Z,6.51
2022-09-02T04:08:21.147Z,5.06
2022-09-02T04:09:01.170Z,4.50
2022-09-02T04:09:45.965Z,5.59
2022-09-02T04:10:28.329Z,5.11
2022-09-02T04:11:17.679Z,4.41
2022-09-02T04:11:59.129Z,4.95
2022-09-02T04:12:39.219Z,5.40
2022-09-02T04:13:19.191Z,5.68
2022-09-02T04:14:00.272Z,4.39
2022-09-02T04:14:41.168Z,5.10
2022-09-02T04:15:21.225Z,4.64
2022-09-02T04:16:02.041Z,5.69
2022-09-02T04:16:43.204Z,4.78
2022-09-02T04:17:23.133Z,4.00
2022-09-02T04:18:03.196Z,3.92
2022-09-02T04:18:43.108Z,3.72
2022-09-02T04:19:23.224Z,3.61
2022-09-02T04:20:04.141Z,3.65
2022-09-02T04:20:46.241Z,3.92
2022-09-02T04:21:26.126Z,4.91
2022-09-02T04:22:06.228Z,5.43
2022-09-02T04:22:47.140Z,4.44
2022-09-02T04:23:28.460Z,6.10
2022-09-02T04:24:09.118Z,5.57
2022-09-02T04:24:49.569Z,5.41
2022-09-02T04:25:30.148Z,5.84
2022-09-02T04:26:13.350Z,4.55
2022-09-02T04:26:54.126Z,4.20
2022-09-02T04:27:34.200Z,3.35
2022-09-02T04:28:14.124Z,2.84
2022-09-02T04:28:56.214Z,3.01
2022-09-02T04:29:38.126Z,3.81
2022-09-02T04:30:21.061Z,3.94
2022-09-02T04:31:02.284Z,3.96
2022-09-02T04:31:42.296Z,3.29
2022-09-02T04:32:23.111Z,5.07
2022-09-02T04:33:03.206Z,5.90
2022-09-02T04:33:44.087Z,3.96
2022-09-02T04:34:24.191Z,4.06
2022-09-02T04:35:04.103Z,4.28
2022-09-02T04:35:52.447Z,5.35
2022-09-02T04:36:33.142Z,5.43
2022-09-02T04:37:14.402Z,4.04
2022-09-02T04:37:55.101Z,4.66
2022-09-02T04:38:35.209Z,3.86
2022-09-02T04:39:16.167Z,5.09
2022-09-02T04:39:57.801Z,6.29
2022-09-02T04:40:39.145Z,6.78
2022-09-02T04:41:42.153Z,5.91
2022-09-02T04:42:36.091Z,4.89
2022-09-02T04:43:30.101Z,4.66
2022-09-02T04:44:24.098Z,5.50
2022-09-02T04:45:19.103Z,5.60
2022-09-02T04:46:13.142Z,4.70
2022-09-02T04:47:00.145Z,5.50
2022-09-02T04:47:34.185Z,5.47
2022-09-02T04:48:21.108Z,5.28
2022-09-02T04:48:55.245Z,5.60
2022-09-02T04:49:43.096Z,4.65
2022-09-02T04:50:17.166Z,4.74
2022-09-02T04:51:04.092Z,5.40
2022-09-02T04:51:38.164Z,7.34
2022-09-02T04:52:27.122Z,6.96
2022-09-02T04:53:01.190Z,6.01
2022-09-02T04:53:49.104Z,6.20
2022-09-02T04:54:23.156Z,5.55
2022-09-02T04:55:12.094Z,5.56
2022-09-02T04:55:48.238Z,4.70
2022-09-02T04:56:39.099Z,5.49
2022-09-02T04:57:13.142Z,4.88
2022-09-02T04:57:55.118Z,4.50
2022-09-02T04:58:35.172Z,4.49
2022-09-02T04:59:17.075Z,4.26
2022-09-02T04:59:57.225Z,5.63
2022-09-02T05:00:37.084Z,6.43
2022-09-02T05:01:23.341Z,4.80
2022-09-02T05:02:03.166Z,6.21
2022-09-02T05:02:43.913Z,6.63
2022-09-02T05:03:25.128Z,6.22
2022-09-02T05:04:07.338Z,4.97
2022-09-02T05:04:48.072Z,6.43
2022-09-02T05:05:28.167Z,7.57
2022-09-02T05:06:12.066Z,5.78
2022-09-02T05:06:53.713Z,4.59
2022-09-02T05:07:35.088Z,3.95
2022-09-02T05:08:16.406Z,3.94
2022-09-02T05:08:56.194Z,5.20
2022-09-02T05:09:39.144Z,4.14
2022-09-02T05:10:21.068Z,4.15
2022-09-02T05:11:02.221Z,4.20
2022-09-02T05:11:43.066Z,3.85
2022-09-02T05:12:25.426Z,4.28
2022-09-02T05:13:07.084Z,3.92
2022-09-02T05:13:53.889Z,4.14
2022-09-02T05:14:35.139Z,5.51
2022-09-02T05:15:17.152Z,5.64
2022-09-02T05:15:57.156Z,4.56
2022-09-02T05:16:45.675Z,4.74
2022-09-02T05:17:29.842Z,4.60
2022-09-02T05:18:10.306Z,4.43
2022-09-02T05:18:50.051Z,5.15
2022-09-02T05:19:31.150Z,4.04
2022-09-02T05:20:14.117Z,4.65
2022-09-02T05:20:54.188Z,3.94
2022-09-02T05:21:34.328Z,4.96
2022-09-02T05:22:15.146Z,6.45
2022-09-02T05:22:57.116Z,5.65
2022-09-02T05:23:37.133Z,5.26
2022-09-02T05:24:17.070Z,5.19
2022-09-02T05:24:57.153Z,7.22
2022-09-02T05:25:38.092Z,6.82
2022-09-02T05:26:20.173Z,3.39
2022-09-02T05:27:01.073Z,4.69
2022-09-02T05:27:42.195Z,4.55
2022-09-02T05:28:23.071Z,5.47
2022-09-02T05:29:03.376Z,4.72
2022-09-02T05:29:45.499Z,5.15
2022-09-02T05:30:26.142Z,4.11
2022-09-02T05:31:19.178Z,4.43
2022-09-02T05:31:59.186Z,4.74
2022-09-02T05:32:39.067Z,4.46
2022-09-02T05:33:19.199Z,5.06
2022-09-02T05:34:00.092Z,4.46
2022-09-02T05:34:42.113Z,4.11
2022-09-02T05:35:23.060Z,5.13
2022-09-02T05:36:03.117Z,6.60
2022-09-02T05:36:44.071Z,6.10
2022-09-02T05:37:24.539Z,5.00
2022-09-02T05:38:05.029Z,4.25
2022-09-02T05:38:47.121Z,4.41
2022-09-02T05:39:27.073Z,5.00
2022-09-02T05:40:07.730Z,4.69
2022-09-02T05:40:48.101Z,5.49
2022-09-02T05:41:30.134Z,5.11
2022-09-02T05:42:11.082Z,4.69
2022-09-02T05:42:51.113Z,5.28
2022-09-02T05:43:31.043Z,5.50
2022-09-02T05:44:12.116Z,5.75
2022-09-02T05:44:53.039Z,6.56
2022-09-02T05:45:34.256Z,6.21
2022-09-02T05:46:18.161Z,5.05
2022-09-02T05:46:59.128Z,4.80
2022-09-02T05:47:45.069Z,6.66
2022-09-02T05:48:43.917Z,6.70
2022-09-02T05:49:25.042Z,6.84
2022-09-02T05:50:05.133Z,7.29
2022-09-02T05:50:50.234Z,4.68
2022-09-02T05:52:01.169Z,4.68
2022-09-02T05:52:42.046Z,4.53
2022-09-02T05:53:22.078Z,4.68
2022-09-02T05:54:00.350Z,4.80
2022-09-02T05:54:47.032Z,5.26
2022-09-02T05:55:21.104Z,5.25
2022-09-02T05:56:12.030Z,4.86
2022-09-02T05:56:49.097Z,5.35
2022-09-02T05:57:36.029Z,5.25
2022-09-02T05:58:10.096Z,5.91
2022-09-02T05:58:50.074Z,5.15
2022-09-02T05:59:32.187Z,5.90
2022-09-02T06:00:18.139Z,5.54
2022-09-02T06:00:58.551Z,5.57
2022-09-02T06:01:40.069Z,4.96
2022-09-02T06:02:22.263Z,5.13
2022-09-02T06:03:02.094Z,4.13
2022-09-02T06:03:42.100Z,3.74
2022-09-02T06:04:24.048Z,4.71
2022-09-02T06:05:04.181Z,4.69
2022-09-02T06:05:45.038Z,3.96
2022-09-02T06:06:27.086Z,4.94
2022-09-02T06:07:07.045Z,4.95
2022-09-02T06:07:47.137Z,4.10
2022-09-02T06:08:27.026Z,4.60
2022-09-02T06:09:08.455Z,4.49
2022-09-02T06:09:51.141Z,4.78
2022-09-02T06:10:31.109Z,5.28
2022-09-02T06:11:15.008Z,4.78
2022-09-02T06:11:57.440Z,5.22
2022-09-02T06:12:42.654Z,4.80
2022-09-02T06:13:23.302Z,4.78
2022-09-02T06:14:04.025Z,4.45
2022-09-02T06:14:45.080Z,3.70
2022-09-02T06:15:26.056Z,4.55
2022-09-02T06:16:06.391Z,5.57
2022-09-02T06:16:48.044Z,5.57
2022-09-02T06:17:28.068Z,5.84
2022-09-02T06:18:08.025Z,5.46
2022-09-02T06:18:50.105Z,5.76
2022-09-02T06:19:32.031Z,7.03
2022-09-02T06:20:13.087Z,6.95
2022-09-02T06:20:54.293Z,4.84
2022-09-02T06:21:34.153Z,5.43
2022-09-02T06:22:14.015Z,5.28
2022-09-02T06:22:54.076Z,6.59
2022-09-02T06:23:34.029Z,7.03
2022-09-02T06:24:16.119Z,5.03
2022-09-02T06:24:57.035Z,4.11
2022-09-02T06:25:37.233Z,4.15
2022-09-02T06:26:20.045Z,4.35
2022-09-02T06:27:01.837Z,5.38
2022-09-02T06:27:45.005Z,5.56
2022-09-02T06:28:25.132Z,5.41
2022-09-02T06:29:05.006Z,7.51
2022-09-02T06:29:45.847Z,4.28
2022-09-02T06:30:27.058Z,4.14
2022-09-02T06:31:13.960Z,4.30
2022-09-02T06:31:56.045Z,5.78
2022-09-02T06:32:36.067Z,7.69
2022-09-02T06:33:18.038Z,5.88
2022-09-02T06:34:01.100Z,5.81
2022-09-02T06:34:44.008Z,5.86
2022-09-02T06:35:24.060Z,6.13
2022-09-02T06:36:04.996Z,6.85
2022-09-02T06:36:46.649Z,5.63
2022-09-02T06:37:29.029Z,5.78
2022-09-02T06:38:09.102Z,4.50
2022-09-02T06:38:51.996Z,5.00
2022-09-02T06:39:32.098Z,6.82
2022-09-02T06:40:13.055Z,4.88
2022-09-02T06:40:59.059Z,5.76
2022-09-02T06:41:40.994Z,5.26
2022-09-02T06:42:21.067Z,5.51
2022-09-02T06:43:02.011Z,6.84
2022-09-02T06:43:42.692Z,6.25
2022-09-02T06:44:26.017Z,6.65
2022-09-02T06:45:06.078Z,5.44
2022-09-02T06:45:48.047Z,4.71
2022-09-02T06:46:32.211Z,3.45
2022-09-02T06:47:12.981Z,4.72
2022-09-02T06:47:55.882Z,4.95
2022-09-02T06:48:36.014Z,5.26
2022-09-02T06:49:17.037Z,5.39
2022-09-02T06:49:56.977Z,5.30
2022-09-02T06:50:37.053Z,3.53
2022-09-02T06:51:27.009Z,4.04
2022-09-02T06:52:07.061Z,4.00
2022-09-02T06:52:47.984Z,4.41
2022-09-02T06:53:29.083Z,4.05
2022-09-02T06:54:14.155Z,3.97
2022-09-02T06:54:55.404Z,4.06
2022-09-02T06:55:34.968Z,4.47
2022-09-02T06:56:15.123Z,4.56
2022-09-02T06:56:56.993Z,3.90
2022-09-02T06:57:37.072Z,3.55
2022-09-02T06:58:18.022Z,3.28
2022-09-02T06:58:58.109Z,3.69
2022-09-02T06:59:39.011Z,3.31
2022-09-02T07:00:20.666Z,3.97
2022-09-02T07:01:02.041Z,4.38
2022-09-02T07:01:42.210Z,4.14
2022-09-02T07:02:22.981Z,3.64
2022-09-02T07:03:24.569Z,4.34
2022-09-02T07:04:24.014Z,4.80
2022-09-02T07:05:16.016Z,3.51
2022-09-02T07:06:14.076Z,3.61
2022-09-02T07:06:59.028Z,4.06
2022-09-02T07:07:43.279Z,4.10
2022-09-02T07:08:22.967Z,3.41
2022-09-02T07:09:03.044Z,3.94
2022-09-02T07:09:42.955Z,5.16
2022-09-02T07:10:30.084Z,4.96
2022-09-02T07:11:04.564Z,5.79
2022-09-02T07:11:55.981Z,4.88
2022-09-02T07:12:29.681Z,3.86
2022-09-02T07:13:16.965Z,3.40
2022-09-02T07:13:51.243Z,3.11
2022-09-02T07:14:40.962Z,3.60
2022-09-02T07:15:14.821Z,4.39
2022-09-02T07:15:54.990Z,5.91
2022-09-02T07:16:29.112Z,5.50
2022-09-02T07:17:02.991Z,7.03
2022-09-02T07:17:42.967Z,7.11
2022-09-02T07:18:17.012Z,6.34
2022-09-02T07:18:50.688Z,4.49
2022-09-02T07:19:31.972Z,4.64
2022-09-02T07:20:06.159Z,3.90
2022-09-02T07:20:40.647Z,3.45
2022-09-02T07:21:20.992Z,4.39
2022-09-02T07:21:56.092Z,3.67
2022-09-02T07:22:29.758Z,3.70
2022-09-02T07:23:10.964Z,4.84
2022-09-02T07:23:45.050Z,5.32
2022-09-02T07:24:18.923Z,4.53
2022-09-02T07:24:58.959Z,4.82
2022-09-02T07:25:33.069Z,4.97
2022-09-02T07:26:16.722Z,5.31
2022-09-02T07:26:57.994Z,5.29
2022-09-02T07:27:32.031Z,5.01
2022-09-02T07:28:05.653Z,5.20
2022-09-02T07:28:46.947Z,4.38
2022-09-02T07:29:21.096Z,5.50
2022-09-02T07:29:55.189Z,5.39
2022-09-02T07:30:36.017Z,3.49
2022-09-02T07:31:17.128Z,4.69
2022-09-02T07:31:50.739Z,5.65
2022-09-02T07:32:30.995Z,5.30
2022-09-02T07:33:05.588Z,5.90
2022-09-02T07:33:39.778Z,7.51
2022-09-02T07:34:20.945Z,9.06
2022-09-02T07:34:55.016Z,8.56
2022-09-02T07:35:29.462Z,5.36
2022-09-02T07:36:12.980Z,6.20
2022-09-02T07:36:47.362Z,6.90
2022-09-02T07:37:21.657Z,7.98
2022-09-02T07:38:03.980Z,6.97
2022-09-02T07:38:39.030Z,7.05
2022-09-02T07:39:14.923Z,7.03
2022-09-02T07:39:56.928Z,5.32
2022-09-02T07:40:31.031Z,6.01
2022-09-02T07:41:05.326Z,6.50
2022-09-02T07:41:46.928Z,3.69
2022-09-02T07:42:21.045Z,4.15
2022-09-02T07:42:54.825Z,5.76
2022-09-02T07:43:36.984Z,5.25
2022-09-02T07:44:12.007Z,6.00
2022-09-02T07:44:45.734Z,3.63
2022-09-02T07:45:26.954Z,3.50
2022-09-02T07:46:02.135Z,4.29
2022-09-02T07:46:36.473Z,3.95
2022-09-02T07:47:17.933Z,3.58
2022-09-02T07:47:52.051Z,4.69
2022-09-02T07:48:25.820Z,4.06
2022-09-02T07:49:14.985Z,3.17
2022-09-02T07:50:43.253Z,3.06
2022-09-02T07:51:24.928Z,4.25
2022-09-02T07:52:05.064Z,4.47
2022-09-02T07:52:39.144Z,5.46
2022-09-02T07:53:20.939Z,5.21
2022-09-02T07:53:54.996Z,3.35
2022-09-02T07:54:36.990Z,4.20
2022-09-02T07:55:16.999Z,4.28
2022-09-02T07:55:57.006Z,3.09
2022-09-02T07:56:37.257Z,2.94
2022-09-02T07:57:16.964Z,4.00
2022-09-02T07:58:00.995Z,5.31
2022-09-02T07:58:49.929Z,4.40
2022-09-02T07:59:25.047Z,3.26
2022-09-02T08:00:05.977Z,3.19
2022-09-02T08:00:45.983Z,4.41
2022-09-02T08:01:27.090Z,4.36
2022-09-02T08:02:07.700Z,2.97
2022-09-02T08:02:49.063Z,3.26
2022-09-02T08:03:32.477Z,5.36
2022-09-02T08:04:13.929Z,5.14
2022-09-02T08:04:54.314Z,5.03
2022-09-02T08:05:35.965Z,6.40
2022-09-02T08:06:15.998Z,5.26
2022-09-02T08:06:58.931Z,4.57
2022-09-02T08:07:39.004Z,5.19
2022-09-02T08:08:23.921Z,4.88
2022-09-02T08:09:04.048Z,4.38
2022-09-02T08:09:44.926Z,4.85
2022-09-02T08:10:29.407Z,5.41
2022-09-02T08:11:11.030Z,4.00
2022-09-02T08:11:53.989Z,4.85
2022-09-02T08:12:34.909Z,6.43
2022-09-02T08:13:15.992Z,3.89
2022-09-02T08:13:56.921Z,3.50
2022-09-02T08:14:37.982Z,3.06
2022-09-02T08:15:19.926Z,4.06
2022-09-02T08:16:02.607Z,4.80
2022-09-02T08:16:43.976Z,3.86
2022-09-02T08:17:24.228Z,5.22
2022-09-02T08:18:05.908Z,4.34
2022-09-02T08:18:46.005Z,3.20
2022-09-02T08:19:27.907Z,3.42
2022-09-02T08:20:12.277Z,3.61
2022-09-02T08:20:53.911Z,4.19
2022-09-02T08:21:33.987Z,4.00
2022-09-02T08:22:13.955Z,4.13
2022-09-02T08:23:05.046Z,4.99
2022-09-02T08:23:56.929Z,4.39
2022-09-02T08:24:37.978Z,3.76
2022-09-02T08:25:17.893Z,2.67
2022-09-02T08:25:57.961Z,3.71
2022-09-02T08:26:43.892Z,3.69
2022-09-02T08:27:30.948Z,5.03
2022-09-02T08:28:24.908Z,4.34
2022-09-02T08:29:20.927Z,5.28
2022-09-02T08:30:16.926Z,4.71
2022-09-02T08:31:10.895Z,3.06
2022-09-02T08:32:04.918Z,3.09
2022-09-02T08:32:51.947Z,3.22
2022-09-02T08:33:25.996Z,3.36
2022-09-02T08:34:12.883Z,3.34
2022-09-02T08:34:47.491Z,3.90
2022-09-02T08:35:34.918Z,4.00
2022-09-02T08:36:15.130Z,2.96
2022-09-02T08:37:02.889Z,2.64
2022-09-02T08:37:37.991Z,3.50
2022-09-02T08:38:17.973Z,3.85
2022-09-02T08:38:57.966Z,3.55
2022-09-02T08:39:37.890Z,4.07
2022-09-02T08:40:29.057Z,2.99
2022-09-02T08:41:09.878Z,2.17
2022-09-02T08:42:24.069Z,2.80
2022-09-02T08:43:04.891Z,3.13
2022-09-02T08:43:50.927Z,4.31
2022-09-02T08:44:30.129Z,4.22
2022-09-02T08:45:46.964Z,2.17
2022-09-02T08:46:25.961Z,2.76
2022-09-02T08:47:21.881Z,3.74
2022-09-02T08:48:14.951Z,2.74
2022-09-02T08:49:17.953Z,3.31
2022-09-02T08:49:59.954Z,3.81
2022-09-02T08:50:51.885Z,4.46
2022-09-02T08:52:03.956Z,3.30
2022-09-02T08:53:42.876Z,2.66
2022-09-02T08:55:01.941Z,1.88
2022-09-02T08:56:10.880Z,2.00
2022-09-02T08:57:05.888Z,2.99
2022-09-02T08:58:02.926Z,4.24
2022-09-02T08:59:03.865Z,2.36
2022-09-02T08:59:57.889Z,2.19
2022-09-02T09:00:45.946Z,3.03
2022-09-02T09:01:50.048Z,2.88
2022-09-02T09:03:21.884Z,2.17
2022-09-02T09:04:23.947Z,3.16
2022-09-02T09:05:40.881Z,3.55
2022-09-02T09:06:35.898Z,3.01
2022-09-02T09:07:15.921Z,3.33
2022-09-02T09:08:37.873Z,4.18
2022-09-02T09:09:33.949Z,4.78
2022-09-02T09:10:48.865Z,3.40
2022-09-02T09:11:34.925Z,2.99
2022-09-02T09:12:39.964Z,3.10
2022-09-02T09:13:26.940Z,3.34
2022-09-02T09:14:23.896Z,3.41
2022-09-02T09:15:38.937Z,4.95
2022-09-02T09:16:42.044Z,3.86
2022-09-02T09:17:55.892Z,3.80
2022-09-02T09:19:08.755Z,5.74
2022-09-02T09:20:07.857Z,4.05
2022-09-02T09:21:01.860Z,1.69
2022-09-02T09:21:57.866Z,1.60
2022-09-02T09:22:52.864Z,1.55
2022-09-02T09:23:42.913Z,1.54
2022-09-02T09:24:45.916Z,2.85
2022-09-02T09:25:26.853Z,2.05
2022-09-02T09:26:17.937Z,2.75
2022-09-02T09:27:01.864Z,2.80
2022-09-02T09:27:41.959Z,1.59
2022-09-02T09:28:21.862Z,1.20
2022-09-02T09:29:06.081Z,2.17
2022-09-02T09:29:39.926Z,2.72
2022-09-02T09:30:26.840Z,3.01
2022-09-02T09:31:01.256Z,2.79
2022-09-02T09:31:48.865Z,2.83
2022-09-02T09:32:40.048Z,1.58
2022-09-02T09:33:28.865Z,1.98
2022-09-02T09:34:23.896Z,0.89
2022-09-02T09:35:26.902Z,1.30
2022-09-02T09:36:21.868Z,1.44
2022-09-02T09:37:15.840Z,1.06